sensor_id;sensor_type;location;lat;lon;timestamp;P1;durP1;ratioP1;P2;durP2;ratioP2
3095;SDS011;1558;42.700;23.360;2023-06-22T00:01:32;13.87;;;11.73;;
3095;SDS011;1558;42.700;23.360;2023-06-22T00:04:01;13.57;;;10.70;;
3095;SDS011;1558;42.700;23.360;2023-06-22T00:06:29;12.10;;;11.00;;
3095;SDS011;1558;42.700;23.360;2023-06-22T00:08:57;12.40;;;11.13;;
3095;SDS011;1558;42.700;23.360;2023-06-22T00:11:25;12.40;;;11.30;;
3095;SDS011;1558;42.700;23.360;2023-06-22T00:13:55;12.17;;;11.17;;
3095;SDS011;1558;42.700;23.360;2023-06-22T00:16:23;12.57;;;11.30;;
3095;SDS011;1558;42.700;23.360;2023-06-22T00:18:51;12.37;;;11.17;;
3095;SDS011;1558;42.700;23.360;2023-06-22T00:21:19;12.83;;;11.00;;
3095;SDS011;1558;42.700;23.360;2023-06-22T00:23:47;12.33;;;11.03;;
3095;SDS011;1558;42.700;23.360;2023-06-22T00:26:15;12.17;;;10.97;;
3095;SDS011;1558;42.700;23.360;2023-06-22T00:28:44;12.80;;;11.70;;
3095;SDS011;1558;42.700;23.360;2023-06-22T00:31:13;12.60;;;11.40;;
3095;SDS011;1558;42.700;23.360;2023-06-22T00:33:41;12.37;;;11.37;;
3095;SDS011;1558;42.700;23.360;2023-06-22T00:36:10;12.43;;;11.17;;
3095;SDS011;1558;42.700;23.360;2023-06-22T00:38:40;13.07;;;11.77;;
3095;SDS011;1558;42.700;23.360;2023-06-22T00:41:08;12.30;;;11.10;;
3095;SDS011;1558;42.700;23.360;2023-06-22T00:43:36;13.10;;;11.80;;
3095;SDS011;1558;42.700;23.360;2023-06-22T00:46:04;12.67;;;11.57;;
3095;SDS011;1558;42.700;23.360;2023-06-22T00:48:34;13.70;;;12.30;;
3095;SDS011;1558;42.700;23.360;2023-06-22T00:51:03;12.60;;;11.30;;
3095;SDS011;1558;42.700;23.360;2023-06-22T00:53:32;14.17;;;12.40;;
3095;SDS011;1558;42.700;23.360;2023-06-22T00:56:01;14.87;;;12.20;;
3095;SDS011;1558;42.700;23.360;2023-06-22T00:58:30;13.43;;;11.37;;
3095;SDS011;1558;42.700;23.360;2023-06-22T01:00:58;12.83;;;11.53;;
3095;SDS011;1558;42.700;23.360;2023-06-22T01:03:26;13.47;;;11.10;;
3095;SDS011;1558;42.700;23.360;2023-06-22T01:05:58;12.87;;;11.57;;
3095;SDS011;1558;42.700;23.360;2023-06-22T01:08:37;13.27;;;12.07;;
3095;SDS011;1558;42.700;23.360;2023-06-22T01:11:10;12.70;;;11.40;;
3095;SDS011;1558;42.700;23.360;2023-06-22T01:13:45;12.27;;;11.17;;
3095;SDS011;1558;42.700;23.360;2023-06-22T01:16:22;13.57;;;11.70;;
3095;SDS011;1558;42.700;23.360;2023-06-22T01:18:54;15.07;;;12.03;;
3095;SDS011;1558;42.700;23.360;2023-06-22T01:21:27;13.87;;;11.27;;
3095;SDS011;1558;42.700;23.360;2023-06-22T01:24:01;13.30;;;11.97;;
3095;SDS011;1558;42.700;23.360;2023-06-22T01:26:42;12.27;;;11.00;;
3095;SDS011;1558;42.700;23.360;2023-06-22T01:29:23;12.27;;;11.07;;
3095;SDS011;1558;42.700;23.360;2023-06-22T01:31:54;12.53;;;11.30;;
3095;SDS011;1558;42.700;23.360;2023-06-22T01:34:24;12.77;;;11.57;;
3095;SDS011;1558;42.700;23.360;2023-06-22T01:36:53;13.10;;;11.80;;
3095;SDS011;1558;42.700;23.360;2023-06-22T01:39:22;12.43;;;11.00;;
3095;SDS011;1558;42.700;23.360;2023-06-22T01:41:50;13.30;;;12.00;;
3095;SDS011;1558;42.700;23.360;2023-06-22T01:44:20;13.23;;;11.93;;
3095;SDS011;1558;42.700;23.360;2023-06-22T01:46:51;13.57;;;12.30;;
3095;SDS011;1558;42.700;23.360;2023-06-22T01:49:20;13.77;;;12.43;;
3095;SDS011;1558;42.700;23.360;2023-06-22T01:51:49;12.73;;;11.43;;
3095;SDS011;1558;42.700;23.360;2023-06-22T01:54:19;13.33;;;12.00;;
3095;SDS011;1558;42.700;23.360;2023-06-22T01:56:47;12.10;;;11.03;;
3095;SDS011;1558;42.700;23.360;2023-06-22T01:59:17;14.33;;;12.17;;
3095;SDS011;1558;42.700;23.360;2023-06-22T02:01:59;14.83;;;11.67;;
3095;SDS011;1558;42.700;23.360;2023-06-22T02:04:33;13.00;;;11.30;;
3095;SDS011;1558;42.700;23.360;2023-06-22T02:07:05;12.33;;;11.10;;
3095;SDS011;1558;42.700;23.360;2023-06-22T02:09:40;12.60;;;10.87;;
3095;SDS011;1558;42.700;23.360;2023-06-22T02:12:11;12.50;;;11.40;;
3095;SDS011;1558;42.700;23.360;2023-06-22T02:14:41;12.47;;;11.23;;
3095;SDS011;1558;42.700;23.360;2023-06-22T02:17:11;12.93;;;11.70;;
3095;SDS011;1558;42.700;23.360;2023-06-22T02:19:40;12.70;;;11.27;;
3095;SDS011;1558;42.700;23.360;2023-06-22T02:22:09;13.53;;;11.37;;
3095;SDS011;1558;42.700;23.360;2023-06-22T02:24:39;12.17;;;10.97;;
3095;SDS011;1558;42.700;23.360;2023-06-22T02:27:07;12.30;;;11.20;;
3095;SDS011;1558;42.700;23.360;2023-06-22T02:29:35;13.53;;;11.80;;
3095;SDS011;1558;42.700;23.360;2023-06-22T02:32:04;12.47;;;11.27;;
3095;SDS011;1558;42.700;23.360;2023-06-22T02:34:34;13.00;;;11.70;;
3095;SDS011;1558;42.700;23.360;2023-06-22T02:37:03;12.27;;;11.00;;
3095;SDS011;1558;42.700;23.360;2023-06-22T02:39:31;13.30;;;12.17;;
3095;SDS011;1558;42.700;23.360;2023-06-22T02:41:59;13.10;;;11.77;;
3095;SDS011;1558;42.700;23.360;2023-06-22T02:44:28;16.53;;;12.60;;
3095;SDS011;1558;42.700;23.360;2023-06-22T02:46:56;12.80;;;11.60;;
3095;SDS011;1558;42.700;23.360;2023-06-22T02:49:24;13.47;;;12.10;;
3095;SDS011;1558;42.700;23.360;2023-06-22T02:51:54;13.47;;;12.13;;
3095;SDS011;1558;42.700;23.360;2023-06-22T02:54:22;13.13;;;11.93;;
3095;SDS011;1558;42.700;23.360;2023-06-22T02:56:50;12.37;;;11.27;;
3095;SDS011;1558;42.700;23.360;2023-06-22T02:59:19;14.33;;;13.03;;
3095;SDS011;1558;42.700;23.360;2023-06-22T03:01:50;12.77;;;11.57;;
3095;SDS011;1558;42.700;23.360;2023-06-22T03:04:18;12.80;;;11.60;;
3095;SDS011;1558;42.700;23.360;2023-06-22T03:06:47;15.67;;;11.87;;
3095;SDS011;1558;42.700;23.360;2023-06-22T03:09:19;15.60;;;12.00;;
3095;SDS011;1558;42.700;23.360;2023-06-22T03:11:47;13.40;;;12.03;;
3095;SDS011;1558;42.700;23.360;2023-06-22T03:14:15;12.50;;;11.33;;
3095;SDS011;1558;42.700;23.360;2023-06-22T03:16:43;13.73;;;12.17;;
3095;SDS011;1558;42.700;23.360;2023-06-22T03:19:12;15.90;;;12.77;;
3095;SDS011;1558;42.700;23.360;2023-06-22T03:21:40;14.80;;;12.07;;
3095;SDS011;1558;42.700;23.360;2023-06-22T03:24:08;13.90;;;12.13;;
3095;SDS011;1558;42.700;23.360;2023-06-22T03:26:37;14.90;;;11.70;;
3095;SDS011;1558;42.700;23.360;2023-06-22T03:29:06;15.67;;;12.33;;
3095;SDS011;1558;42.700;23.360;2023-06-22T03:31:34;12.90;;;11.70;;
3095;SDS011;1558;42.700;23.360;2023-06-22T03:34:02;15.27;;;12.60;;
3095;SDS011;1558;42.700;23.360;2023-06-22T03:36:30;14.33;;;12.80;;
3095;SDS011;1558;42.700;23.360;2023-06-22T03:38:58;13.70;;;11.97;;
3095;SDS011;1558;42.700;23.360;2023-06-22T03:41:26;13.53;;;12.23;;
3095;SDS011;1558;42.700;23.360;2023-06-22T03:43:55;15.57;;;12.70;;
3095;SDS011;1558;42.700;23.360;2023-06-22T03:46:23;14.57;;;12.93;;
3095;SDS011;1558;42.700;23.360;2023-06-22T03:48:52;15.03;;;13.43;;
3095;SDS011;1558;42.700;23.360;2023-06-22T03:51:20;14.30;;;12.67;;
3095;SDS011;1558;42.700;23.360;2023-06-22T03:53:48;13.53;;;11.97;;
3095;SDS011;1558;42.700;23.360;2023-06-22T03:56:16;14.27;;;12.80;;
3095;SDS011;1558;42.700;23.360;2023-06-22T03:58:46;14.37;;;12.47;;
3095;SDS011;1558;42.700;23.360;2023-06-22T04:01:16;13.47;;;12.23;;
3095;SDS011;1558;42.700;23.360;2023-06-22T04:03:44;13.27;;;12.00;;
3095;SDS011;1558;42.700;23.360;2023-06-22T04:06:14;14.90;;;12.70;;
3095;SDS011;1558;42.700;23.360;2023-06-22T04:08:44;13.87;;;12.37;;
3095;SDS011;1558;42.700;23.360;2023-06-22T04:11:14;15.93;;;11.37;;
3095;SDS011;1558;42.700;23.360;2023-06-22T04:13:42;12.50;;;11.20;;
3095;SDS011;1558;42.700;23.360;2023-06-22T04:16:10;12.97;;;11.73;;
3095;SDS011;1558;42.700;23.360;2023-06-22T04:18:40;12.97;;;11.87;;
3095;SDS011;1558;42.700;23.360;2023-06-22T04:21:26;12.57;;;11.33;;
3095;SDS011;1558;42.700;23.360;2023-06-22T04:23:54;14.27;;;12.93;;
3095;SDS011;1558;42.700;23.360;2023-06-22T04:26:22;15.83;;;11.70;;
3095;SDS011;1558;42.700;23.360;2023-06-22T04:28:50;13.03;;;11.83;;
3095;SDS011;1558;42.700;23.360;2023-06-22T04:31:21;13.93;;;12.33;;
3095;SDS011;1558;42.700;23.360;2023-06-22T04:34:00;16.50;;;12.50;;
3095;SDS011;1558;42.700;23.360;2023-06-22T04:36:33;15.10;;;13.17;;
3095;SDS011;1558;42.700;23.360;2023-06-22T04:39:05;15.43;;;12.67;;
3095;SDS011;1558;42.700;23.360;2023-06-22T04:41:36;17.00;;;12.87;;
3095;SDS011;1558;42.700;23.360;2023-06-22T04:44:09;15.27;;;13.47;;
3095;SDS011;1558;42.700;23.360;2023-06-22T04:46:38;14.40;;;12.97;;
3095;SDS011;1558;42.700;23.360;2023-06-22T04:49:08;15.43;;;13.90;;
3095;SDS011;1558;42.700;23.360;2023-06-22T04:51:38;15.07;;;13.73;;
3095;SDS011;1558;42.700;23.360;2023-06-22T04:54:08;15.33;;;13.73;;
3095;SDS011;1558;42.700;23.360;2023-06-22T04:56:37;19.15;;;14.18;;
3095;SDS011;1558;42.700;23.360;2023-06-22T04:59:07;21.15;;;14.05;;
3095;SDS011;1558;42.700;23.360;2023-06-22T05:01:39;16.48;;;13.85;;
3095;SDS011;1558;42.700;23.360;2023-06-22T05:04:09;15.57;;;13.68;;
3095;SDS011;1558;42.700;23.360;2023-06-22T05:06:37;17.23;;;14.38;;
3095;SDS011;1558;42.700;23.360;2023-06-22T05:09:06;19.02;;;13.43;;
3095;SDS011;1558;42.700;23.360;2023-06-22T05:11:34;15.48;;;12.35;;
3095;SDS011;1558;42.700;23.360;2023-06-22T05:14:02;12.65;;;11.38;;
3095;SDS011;1558;42.700;23.360;2023-06-22T05:16:31;13.60;;;11.93;;
3095;SDS011;1558;42.700;23.360;2023-06-22T05:18:59;13.43;;;12.15;;
3095;SDS011;1558;42.700;23.360;2023-06-22T05:21:31;14.65;;;11.65;;
3095;SDS011;1558;42.700;23.360;2023-06-22T05:23:59;15.30;;;12.23;;
3095;SDS011;1558;42.700;23.360;2023-06-22T05:26:29;13.75;;;12.02;;
3095;SDS011;1558;42.700;23.360;2023-06-22T05:28:58;12.93;;;10.82;;
3095;SDS011;1558;42.700;23.360;2023-06-22T05:31:27;12.85;;;11.68;;
3095;SDS011;1558;42.700;23.360;2023-06-22T05:33:56;14.13;;;11.90;;
3095;SDS011;1558;42.700;23.360;2023-06-22T05:36:24;12.82;;;11.48;;
3095;SDS011;1558;42.700;23.360;2023-06-22T05:38:56;14.25;;;12.75;;
3095;SDS011;1558;42.700;23.360;2023-06-22T05:41:25;13.27;;;11.85;;
3095;SDS011;1558;42.700;23.360;2023-06-22T05:43:53;13.02;;;11.68;;
3095;SDS011;1558;42.700;23.360;2023-06-22T05:46:21;17.95;;;15.88;;
3095;SDS011;1558;42.700;23.360;2023-06-22T05:48:50;14.00;;;12.77;;
3095;SDS011;1558;42.700;23.360;2023-06-22T05:51:18;13.38;;;12.07;;
3095;SDS011;1558;42.700;23.360;2023-06-22T05:53:47;12.50;;;11.30;;
3095;SDS011;1558;42.700;23.360;2023-06-22T05:56:17;14.13;;;12.45;;
3095;SDS011;1558;42.700;23.360;2023-06-22T05:58:45;12.65;;;11.57;;
3095;SDS011;1558;42.700;23.360;2023-06-22T06:01:13;13.52;;;12.20;;
3095;SDS011;1558;42.700;23.360;2023-06-22T06:03:42;12.82;;;11.65;;
3095;SDS011;1558;42.700;23.360;2023-06-22T06:06:10;19.45;;;12.13;;
3095;SDS011;1558;42.700;23.360;2023-06-22T06:08:41;15.15;;;12.13;;
3095;SDS011;1558;42.700;23.360;2023-06-22T06:11:09;12.95;;;11.38;;
3095;SDS011;1558;42.700;23.360;2023-06-22T06:13:38;11.73;;;10.82;;
3095;SDS011;1558;42.700;23.360;2023-06-22T06:16:06;12.55;;;11.35;;
3095;SDS011;1558;42.700;23.360;2023-06-22T06:18:34;12.80;;;11.70;;
3095;SDS011;1558;42.700;23.360;2023-06-22T06:21:03;12.32;;;11.27;;
3095;SDS011;1558;42.700;23.360;2023-06-22T06:23:31;12.60;;;11.52;;
3095;SDS011;1558;42.700;23.360;2023-06-22T06:25:59;12.40;;;11.38;;
3095;SDS011;1558;42.700;23.360;2023-06-22T06:28:28;13.75;;;11.68;;
3095;SDS011;1558;42.700;23.360;2023-06-22T06:30:57;13.15;;;11.77;;
3095;SDS011;1558;42.700;23.360;2023-06-22T06:33:25;13.55;;;12.35;;
3095;SDS011;1558;42.700;23.360;2023-06-22T06:35:53;13.32;;;12.13;;
3095;SDS011;1558;42.700;23.360;2023-06-22T06:38:22;12.23;;;11.32;;
3095;SDS011;1558;42.700;23.360;2023-06-22T06:40:50;14.55;;;12.63;;
3095;SDS011;1558;42.700;23.360;2023-06-22T06:43:18;14.93;;;11.60;;
3095;SDS011;1558;42.700;23.360;2023-06-22T06:45:46;12.95;;;11.73;;
3095;SDS011;1558;42.700;23.360;2023-06-22T06:48:19;13.27;;;12.07;;
3095;SDS011;1558;42.700;23.360;2023-06-22T06:50:47;13.38;;;12.23;;
3095;SDS011;1558;42.700;23.360;2023-06-22T06:53:16;12.20;;;11.20;;
3095;SDS011;1558;42.700;23.360;2023-06-22T06:55:44;12.73;;;11.77;;
3095;SDS011;1558;42.700;23.360;2023-06-22T06:58:13;13.02;;;11.80;;
3095;SDS011;1558;42.700;23.360;2023-06-22T07:00:41;13.52;;;12.18;;
3095;SDS011;1558;42.700;23.360;2023-06-22T07:03:09;12.93;;;11.90;;
3095;SDS011;1558;42.700;23.360;2023-06-22T07:05:39;13.15;;;11.95;;
3095;SDS011;1558;42.700;23.360;2023-06-22T07:08:07;13.65;;;12.63;;
3095;SDS011;1558;42.700;23.360;2023-06-22T07:10:35;13.30;;;12.18;;
3095;SDS011;1558;42.700;23.360;2023-06-22T07:13:04;12.88;;;11.88;;
3095;SDS011;1558;42.700;23.360;2023-06-22T07:15:32;12.63;;;11.52;;
3095;SDS011;1558;42.700;23.360;2023-06-22T07:18:00;13.38;;;11.77;;
3095;SDS011;1558;42.700;23.360;2023-06-22T07:20:28;13.07;;;11.75;;
3095;SDS011;1558;42.700;23.360;2023-06-22T07:22:58;13.25;;;11.95;;
3095;SDS011;1558;42.700;23.360;2023-06-22T07:25:26;14.27;;;12.63;;
3095;SDS011;1558;42.700;23.360;2023-06-22T07:27:58;13.43;;;12.07;;
3095;SDS011;1558;42.700;23.360;2023-06-22T07:30:27;13.45;;;12.05;;
3095;SDS011;1558;42.700;23.360;2023-06-22T07:32:56;13.88;;;12.70;;
3095;SDS011;1558;42.700;23.360;2023-06-22T07:35:29;14.98;;;13.20;;
3095;SDS011;1558;42.700;23.360;2023-06-22T07:37:59;14.25;;;12.80;;
3095;SDS011;1558;42.700;23.360;2023-06-22T07:40:31;13.52;;;12.25;;
3095;SDS011;1558;42.700;23.360;2023-06-22T07:43:00;13.77;;;12.35;;
3095;SDS011;1558;42.700;23.360;2023-06-22T07:45:28;15.48;;;12.23;;
3095;SDS011;1558;42.700;23.360;2023-06-22T07:47:56;14.05;;;12.77;;
3095;SDS011;1558;42.700;23.360;2023-06-22T07:50:25;14.05;;;12.68;;
3095;SDS011;1558;42.700;23.360;2023-06-22T07:52:53;15.43;;;14.02;;
3095;SDS011;1558;42.700;23.360;2023-06-22T07:55:23;14.85;;;13.50;;
3095;SDS011;1558;42.700;23.360;2023-06-22T07:57:51;16.13;;;14.55;;
3095;SDS011;1558;42.700;23.360;2023-06-22T08:00:19;14.77;;;13.68;;
3095;SDS011;1558;42.700;23.360;2023-06-22T08:02:48;16.02;;;14.52;;
3095;SDS011;1558;42.700;23.360;2023-06-22T08:05:16;18.48;;;14.65;;
3095;SDS011;1558;42.700;23.360;2023-06-22T08:07:59;16.88;;;15.38;;
3095;SDS011;1558;42.700;23.360;2023-06-22T08:10:28;16.55;;;15.00;;
3095;SDS011;1558;42.700;23.360;2023-06-22T08:12:56;16.75;;;15.07;;
3095;SDS011;1558;42.700;23.360;2023-06-22T08:15:25;17.52;;;15.48;;
3095;SDS011;1558;42.700;23.360;2023-06-22T08:17:55;16.88;;;15.32;;
3095;SDS011;1558;42.700;23.360;2023-06-22T08:20:24;16.30;;;14.70;;
3095;SDS011;1558;42.700;23.360;2023-06-22T08:22:53;17.67;;;16.13;;
3095;SDS011;1558;42.700;23.360;2023-06-22T08:25:21;17.40;;;14.95;;
3095;SDS011;1558;42.700;23.360;2023-06-22T08:27:51;15.18;;;13.70;;
3095;SDS011;1558;42.700;23.360;2023-06-22T08:30:19;17.23;;;15.73;;
3095;SDS011;1558;42.700;23.360;2023-06-22T08:32:47;17.20;;;15.60;;
3095;SDS011;1558;42.700;23.360;2023-06-22T08:35:15;16.80;;;15.35;;
3095;SDS011;1558;42.700;23.360;2023-06-22T08:37:43;15.50;;;13.95;;
3095;SDS011;1558;42.700;23.360;2023-06-22T08:40:18;16.48;;;14.57;;
3095;SDS011;1558;42.700;23.360;2023-06-22T08:42:47;19.98;;;15.45;;
3095;SDS011;1558;42.700;23.360;2023-06-22T08:45:17;18.50;;;16.77;;
3095;SDS011;1558;42.700;23.360;2023-06-22T08:47:45;18.48;;;15.75;;
3095;SDS011;1558;42.700;23.360;2023-06-22T08:50:13;18.67;;;15.18;;
3095;SDS011;1558;42.700;23.360;2023-06-22T08:52:42;17.15;;;15.38;;
3095;SDS011;1558;42.700;23.360;2023-06-22T08:55:10;16.73;;;14.95;;
3095;SDS011;1558;42.700;23.360;2023-06-22T08:57:38;16.45;;;14.82;;
3095;SDS011;1558;42.700;23.360;2023-06-22T09:00:07;16.85;;;15.35;;
3095;SDS011;1558;42.700;23.360;2023-06-22T09:02:45;16.70;;;15.07;;
3095;SDS011;1558;42.700;23.360;2023-06-22T09:05:15;16.80;;;15.02;;
3095;SDS011;1558;42.700;23.360;2023-06-22T09:07:43;16.58;;;14.95;;
3095;SDS011;1558;42.700;23.360;2023-06-22T09:10:12;14.90;;;13.70;;
3095;SDS011;1558;42.700;23.360;2023-06-22T09:12:40;20.35;;;16.70;;
3095;SDS011;1558;42.700;23.360;2023-06-22T09:15:11;14.90;;;13.52;;
3095;SDS011;1558;42.700;23.360;2023-06-22T09:17:45;14.52;;;13.18;;
3095;SDS011;1558;42.700;23.360;2023-06-22T09:20:14;14.00;;;12.88;;
3095;SDS011;1558;42.700;23.360;2023-06-22T09:22:43;14.73;;;13.50;;
3095;SDS011;1558;42.700;23.360;2023-06-22T09:25:11;16.30;;;14.80;;
3095;SDS011;1558;42.700;23.360;2023-06-22T09:27:39;15.75;;;14.25;;
3095;SDS011;1558;42.700;23.360;2023-06-22T09:30:07;15.02;;;13.30;;
3095;SDS011;1558;42.700;23.360;2023-06-22T09:32:36;16.27;;;14.75;;
3095;SDS011;1558;42.700;23.360;2023-06-22T09:35:06;15.75;;;14.32;;
3095;SDS011;1558;42.700;23.360;2023-06-22T09:37:36;13.48;;;12.50;;
3095;SDS011;1558;42.700;23.360;2023-06-22T09:40:05;13.77;;;12.55;;
3095;SDS011;1558;42.700;23.360;2023-06-22T09:42:37;14.57;;;13.27;;
3095;SDS011;1558;42.700;23.360;2023-06-22T09:45:06;12.73;;;11.73;;
3095;SDS011;1558;42.700;23.360;2023-06-22T09:47:34;12.65;;;11.75;;
3095;SDS011;1558;42.700;23.360;2023-06-22T09:50:06;14.02;;;12.20;;
3095;SDS011;1558;42.700;23.360;2023-06-22T09:52:34;13.30;;;12.30;;
3095;SDS011;1558;42.700;23.360;2023-06-22T09:55:06;12.73;;;11.93;;
3095;SDS011;1558;42.700;23.360;2023-06-22T09:57:34;14.50;;;12.23;;
3095;SDS011;1558;42.700;23.360;2023-06-22T10:00:03;16.52;;;13.13;;
3095;SDS011;1558;42.700;23.360;2023-06-22T10:02:35;12.45;;;11.55;;
3095;SDS011;1558;42.700;23.360;2023-06-22T10:05:04;12.60;;;11.60;;
3095;SDS011;1558;42.700;23.360;2023-06-22T10:07:34;13.85;;;12.52;;
3095;SDS011;1558;42.700;23.360;2023-06-22T10:10:06;12.90;;;12.00;;
3095;SDS011;1558;42.700;23.360;2023-06-22T10:12:35;11.70;;;10.70;;
3095;SDS011;1558;42.700;23.360;2023-06-22T10:15:03;11.98;;;11.18;;
3095;SDS011;1558;42.700;23.360;2023-06-22T10:17:33;12.88;;;11.98;;
3095;SDS011;1558;42.700;23.360;2023-06-22T10:20:01;12.07;;;11.32;;
3095;SDS011;1558;42.700;23.360;2023-06-22T10:22:40;15.05;;;13.45;;
3095;SDS011;1558;42.700;23.360;2023-06-22T10:25:11;12.30;;;11.30;;
3095;SDS011;1558;42.700;23.360;2023-06-22T10:27:40;11.55;;;10.75;;
3095;SDS011;1558;42.700;23.360;2023-06-22T10:30:09;11.70;;;10.90;;
3095;SDS011;1558;42.700;23.360;2023-06-22T10:32:39;11.60;;;10.80;;
3095;SDS011;1558;42.700;23.360;2023-06-22T10:35:09;11.88;;;11.07;;
3095;SDS011;1558;42.700;23.360;2023-06-22T10:37:41;12.98;;;11.90;;
3095;SDS011;1558;42.700;23.360;2023-06-22T10:40:11;12.90;;;11.60;;
3095;SDS011;1558;42.700;23.360;2023-06-22T10:42:41;12.32;;;11.38;;
3095;SDS011;1558;42.700;23.360;2023-06-22T10:45:10;11.35;;;10.55;;
3095;SDS011;1558;42.700;23.360;2023-06-22T10:47:39;12.40;;;11.50;;
3095;SDS011;1558;42.700;23.360;2023-06-22T10:50:09;11.90;;;10.38;;
3095;SDS011;1558;42.700;23.360;2023-06-22T10:52:37;11.48;;;10.68;;
3095;SDS011;1558;42.700;23.360;2023-06-22T10:55:07;11.25;;;10.30;;
3095;SDS011;1558;42.700;23.360;2023-06-22T10:57:36;12.45;;;11.38;;
3095;SDS011;1558;42.700;23.360;2023-06-22T11:00:05;11.60;;;10.77;;
3095;SDS011;1558;42.700;23.360;2023-06-22T11:02:37;12.25;;;11.15;;
3095;SDS011;1558;42.700;23.360;2023-06-22T11:05:06;15.93;;;13.25;;
3095;SDS011;1558;42.700;23.360;2023-06-22T11:07:35;11.52;;;10.63;;
3095;SDS011;1558;42.700;23.360;2023-06-22T11:10:09;12.73;;;11.82;;
3095;SDS011;1558;42.700;23.360;2023-06-22T11:12:38;13.68;;;12.45;;
3095;SDS011;1558;42.700;23.360;2023-06-22T11:15:06;11.55;;;10.75;;
3095;SDS011;1558;42.700;23.360;2023-06-22T11:17:35;12.18;;;11.18;;
3095;SDS011;1558;42.700;23.360;2023-06-22T11:20:04;12.35;;;10.80;;
3095;SDS011;1558;42.700;23.360;2023-06-22T11:22:38;12.10;;;11.20;;
3095;SDS011;1558;42.700;23.360;2023-06-22T11:25:07;12.05;;;11.02;;
3095;SDS011;1558;42.700;23.360;2023-06-22T11:27:38;11.55;;;10.75;;
3095;SDS011;1558;42.700;23.360;2023-06-22T11:30:07;11.20;;;10.30;;
3095;SDS011;1558;42.700;23.360;2023-06-22T11:32:36;11.80;;;10.68;;
3095;SDS011;1558;42.700;23.360;2023-06-22T11:35:05;11.25;;;10.25;;
3095;SDS011;1558;42.700;23.360;2023-06-22T11:37:33;12.25;;;11.15;;
3095;SDS011;1558;42.700;23.360;2023-06-22T11:40:01;11.07;;;10.30;;
3095;SDS011;1558;42.700;23.360;2023-06-22T11:42:35;11.27;;;10.10;;
3095;SDS011;1558;42.700;23.360;2023-06-22T11:45:04;11.68;;;10.57;;
3095;SDS011;1558;42.700;23.360;2023-06-22T11:47:35;10.98;;;10.07;;
3095;SDS011;1558;42.700;23.360;2023-06-22T11:50:04;11.05;;;10.27;;
3095;SDS011;1558;42.700;23.360;2023-06-22T11:52:34;11.13;;;10.25;;
3095;SDS011;1558;42.700;23.360;2023-06-22T11:55:04;11.27;;;10.43;;
3095;SDS011;1558;42.700;23.360;2023-06-22T11:57:35;11.30;;;10.27;;
3095;SDS011;1558;42.700;23.360;2023-06-22T12:00:04;11.80;;;10.85;;
3095;SDS011;1558;42.700;23.360;2023-06-22T12:02:44;11.55;;;10.57;;
3095;SDS011;1558;42.700;23.360;2023-06-22T12:05:13;11.15;;;10.15;;
3095;SDS011;1558;42.700;23.360;2023-06-22T12:07:41;12.60;;;10.80;;
3095;SDS011;1558;42.700;23.360;2023-06-22T12:10:09;10.23;;;9.52;;
3095;SDS011;1558;42.700;23.360;2023-06-22T12:12:39;11.57;;;10.02;;
3095;SDS011;1558;42.700;23.360;2023-06-22T12:15:08;11.93;;;10.50;;
3095;SDS011;1558;42.700;23.360;2023-06-22T12:17:37;10.20;;;9.30;;
3095;SDS011;1558;42.700;23.360;2023-06-22T12:20:05;11.70;;;10.63;;
3095;SDS011;1558;42.700;23.360;2023-06-22T12:22:34;10.65;;;9.85;;
3095;SDS011;1558;42.700;23.360;2023-06-22T12:25:04;11.32;;;10.43;;
3095;SDS011;1558;42.700;23.360;2023-06-22T12:27:33;11.80;;;10.70;;
3095;SDS011;1558;42.700;23.360;2023-06-22T12:30:03;11.65;;;10.60;;
3095;SDS011;1558;42.700;23.360;2023-06-22T12:32:32;11.50;;;10.35;;
3095;SDS011;1558;42.700;23.360;2023-06-22T12:35:00;13.32;;;11.70;;
3095;SDS011;1558;42.700;23.360;2023-06-22T12:37:28;13.02;;;11.38;;
3095;SDS011;1558;42.700;23.360;2023-06-22T12:39:58;13.00;;;11.43;;
3095;SDS011;1558;42.700;23.360;2023-06-22T12:42:26;13.98;;;11.10;;
3095;SDS011;1558;42.700;23.360;2023-06-22T12:44:54;12.02;;;10.75;;
3095;SDS011;1558;42.700;23.360;2023-06-22T12:47:23;11.50;;;10.40;;
3095;SDS011;1558;42.700;23.360;2023-06-22T12:49:52;11.77;;;10.70;;
3095;SDS011;1558;42.700;23.360;2023-06-22T12:52:20;11.80;;;10.63;;
3095;SDS011;1558;42.700;23.360;2023-06-22T12:54:48;12.02;;;10.93;;
3095;SDS011;1558;42.700;23.360;2023-06-22T12:57:21;11.48;;;10.35;;
3095;SDS011;1558;42.700;23.360;2023-06-22T12:59:49;12.20;;;11.07;;
3095;SDS011;1558;42.700;23.360;2023-06-22T13:02:18;12.00;;;10.98;;
3095;SDS011;1558;42.700;23.360;2023-06-22T13:04:47;11.02;;;9.90;;
3095;SDS011;1558;42.700;23.360;2023-06-22T13:07:15;10.75;;;9.85;;
3095;SDS011;1558;42.700;23.360;2023-06-22T13:09:49;12.90;;;10.45;;
3095;SDS011;1558;42.700;23.360;2023-06-22T13:12:19;12.43;;;10.70;;
3095;SDS011;1558;42.700;23.360;2023-06-22T13:14:47;13.15;;;11.77;;
3095;SDS011;1558;42.700;23.360;2023-06-22T13:17:15;12.10;;;10.40;;
3095;SDS011;1558;42.700;23.360;2023-06-22T13:19:43;10.70;;;9.75;;
3095;SDS011;1558;42.700;23.360;2023-06-22T13:22:26;11.02;;;9.85;;
3095;SDS011;1558;42.700;23.360;2023-06-22T13:24:56;11.07;;;10.07;;
3095;SDS011;1558;42.700;23.360;2023-06-22T13:27:25;11.00;;;9.95;;
3095;SDS011;1558;42.700;23.360;2023-06-22T13:29:53;12.02;;;10.82;;
3095;SDS011;1558;42.700;23.360;2023-06-22T13:32:21;11.93;;;10.80;;
3095;SDS011;1558;42.700;23.360;2023-06-22T13:34:50;13.00;;;11.80;;
3095;SDS011;1558;42.700;23.360;2023-06-22T13:37:19;13.60;;;12.23;;
3095;SDS011;1558;42.700;23.360;2023-06-22T13:39:49;16.27;;;12.13;;
3095;SDS011;1558;42.700;23.360;2023-06-22T13:42:17;12.52;;;11.18;;
3095;SDS011;1558;42.700;23.360;2023-06-22T13:44:45;12.18;;;11.02;;
3095;SDS011;1558;42.700;23.360;2023-06-22T13:47:13;12.05;;;10.90;;
3095;SDS011;1558;42.700;23.360;2023-06-22T13:49:41;12.20;;;10.90;;
3095;SDS011;1558;42.700;23.360;2023-06-22T13:52:10;12.70;;;11.43;;
3095;SDS011;1558;42.700;23.360;2023-06-22T13:54:39;12.90;;;11.80;;
3095;SDS011;1558;42.700;23.360;2023-06-22T13:57:08;12.30;;;11.20;;
3095;SDS011;1558;42.700;23.360;2023-06-22T13:59:36;12.25;;;11.15;;
3095;SDS011;1558;42.700;23.360;2023-06-22T14:02:04;12.93;;;11.30;;
3095;SDS011;1558;42.700;23.360;2023-06-22T14:04:33;13.05;;;11.85;;
3095;SDS011;1558;42.700;23.360;2023-06-22T14:07:01;14.60;;;13.07;;
3095;SDS011;1558;42.700;23.360;2023-06-22T14:09:29;16.38;;;14.95;;
3095;SDS011;1558;42.700;23.360;2023-06-22T14:11:57;14.27;;;12.50;;
3095;SDS011;1558;42.700;23.360;2023-06-22T14:14:27;13.35;;;12.05;;
3095;SDS011;1558;42.700;23.360;2023-06-22T14:16:55;13.18;;;11.80;;
3095;SDS011;1558;42.700;23.360;2023-06-22T14:19:23;13.45;;;12.05;;
3095;SDS011;1558;42.700;23.360;2023-06-22T14:21:51;14.27;;;12.77;;
3095;SDS011;1558;42.700;23.360;2023-06-22T14:24:19;12.45;;;11.25;;
3095;SDS011;1558;42.700;23.360;2023-06-22T14:26:51;13.20;;;11.80;;
3095;SDS011;1558;42.700;23.360;2023-06-22T14:29:19;12.23;;;11.13;;
3095;SDS011;1558;42.700;23.360;2023-06-22T14:31:48;13.38;;;11.55;;
3095;SDS011;1558;42.700;23.360;2023-06-22T14:34:17;13.27;;;12.07;;
3095;SDS011;1558;42.700;23.360;2023-06-22T14:36:45;11.50;;;10.40;;
3095;SDS011;1558;42.700;23.360;2023-06-22T14:39:13;11.60;;;10.32;;
3095;SDS011;1558;42.700;23.360;2023-06-22T14:41:41;12.63;;;11.43;;
3095;SDS011;1558;42.700;23.360;2023-06-22T14:44:09;11.32;;;10.13;;
3095;SDS011;1558;42.700;23.360;2023-06-22T14:46:37;12.00;;;10.82;;
3095;SDS011;1558;42.700;23.360;2023-06-22T14:49:07;12.93;;;11.70;;